Sykesville, Pennsylvania
Current Conditions -  °F | °C
As of 5:53 AM on Friday 19 Dec 2014 (Local Time) from KDUJ Reporting Station
Light Snow Light Snow  
Wind Chill: 17°   Ceiling: 1200
Heat Index: 27°   Visibility: 4mi
Dew Point: 25°   Wind: 10mph
Humidity: 92%   Direction: 290°WNW
Pressure: 30.05"   Gusts: NA
Location:  41.05°N, 78.82°W
Report Text: KDUJ 191053Z AUTO 29009KT 4SM -SN BR SCT007 BKN012 OVC021 M03/M04 A3005 RMK AO2 SNB49 SLP197 P0000 I1000 T10281039
Loading
Personal Weather Stations






























Interactive Weather Map New forecast layout! Learn more

10-Day Weather Forecast

Advertisements
Track Severe Weather on mobile